Time;durP1;ratioP1;P1;durP2;ratioP2;P2;SDS_P1;SDS_P2;PMS_P1;PMS_P2;Temp;Humidity;BMP_temperature;BMP_pressure;BME280_temperature;BME280_humidity;BME280_pressure;Samples;Min_cycle;Max_cycle;Signal;HPM_P1;HPM_P2
2021/10/15 00:00:49;;;;;;;37.78;21.75;;;4.30;99.90;;;;;;6170528;23;20194;-93
2021/10/15 00:03:16;;;;;;;37.20;22.10;;;4.30;99.90;;;;;;6164665;23;20159;-93
2021/10/15 00:05:43;;;;;;;38.35;22.73;;;4.30;99.90;;;;;;6156966;23;20239;-86
2021/10/15 00:08:10;;;;;;;33.45;21.50;;;4.30;99.90;;;;;;6156236;23;20213;-85
2021/10/15 00:10:36;;;;;;;30.17;20.38;;;4.30;99.90;;;;;;6157217;23;20187;-86
2021/10/15 00:13:03;;;;;;;28.63;18.48;;;4.30;99.90;;;;;;6156913;23;20183;-85
2021/10/15 00:15:29;;;;;;;28.98;18.50;;;4.30;99.90;;;;;;6187690;23;20181;-94
2021/10/15 00:17:56;;;;;;;29.73;18.60;;;4.30;99.90;;;;;;6161296;23;20467;-87
2021/10/15 00:20:22;;;;;;;33.15;20.52;;;4.30;99.90;;;;;;6161290;23;20194;-94
2021/10/15 00:22:48;;;;;;;34.43;20.00;;;4.30;99.90;;;;;;6161609;23;20159;-95
2021/10/15 00:25:15;;;;;;;32.30;18.93;;;4.30;99.90;;;;;;6162017;23;20548;-86
2021/10/15 00:27:41;;;;;;;37.72;20.90;;;4.30;99.90;;;;;;6162138;23;20162;-86
2021/10/15 00:30:07;;;;;;;30.87;18.23;;;4.20;99.90;;;;;;6171614;23;20190;-88
2021/10/15 00:32:33;;;;;;;30.38;18.83;;;4.20;99.90;;;;;;6181823;23;20357;-87
2021/10/15 00:35:00;;;;;;;37.47;18.10;;;4.20;99.90;;;;;;6168243;23;20187;-86
2021/10/15 00:37:25;;;;;;;31.55;18.23;;;4.10;99.90;;;;;;6160937;23;20186;-94
2021/10/15 00:39:51;;;;;;;34.50;18.47;;;4.10;99.90;;;;;;6161562;23;20209;-93
2021/10/15 00:42:17;;;;;;;30.13;17.97;;;4.00;99.90;;;;;;6160984;23;20178;-94
2021/10/15 00:44:44;;;;;;;31.17;19.17;;;4.00;99.90;;;;;;6160663;23;20784;-86
2021/10/15 00:47:09;;;;;;;32.20;17.08;;;4.00;99.90;;;;;;6161306;23;20186;-94
2021/10/15 00:49:37;;;;;;;29.75;15.55;;;3.90;99.90;;;;;;6161116;23;20186;-87
2021/10/15 00:52:05;;;;;;;31.33;18.92;;;3.90;99.90;;;;;;6161240;23;20155;-93
2021/10/15 00:54:31;;;;;;;27.17;15.98;;;3.80;99.90;;;;;;6187438;23;20206;-94
2021/10/15 00:56:57;;;;;;;28.23;18.10;;;3.80;99.90;;;;;;6161062;23;20190;-93
2021/10/15 00:59:24;;;;;;;26.63;15.90;;;3.80;99.90;;;;;;6160935;23;20440;-86
2021/10/15 01:01:49;;;;;;;27.65;16.83;;;3.80;99.90;;;;;;6176044;23;20161;-92
2021/10/15 01:04:23;;;;;;;31.30;16.93;;;3.80;99.90;;;;;;6162964;23;20182;-86
2021/10/15 01:06:49;;;;;;;28.40;16.55;;;3.70;99.90;;;;;;6187484;23;20143;-94
2021/10/15 01:09:16;;;;;;;30.25;16.95;;;3.70;99.90;;;;;;6188201;23;20189;-94
2021/10/15 01:11:43;;;;;;;28.05;16.80;;;3.60;99.90;;;;;;6162816;23;20593;-93
2021/10/15 01:14:10;;;;;;;23.65;14.95;;;3.60;99.90;;;;;;6188365;23;20261;-94
2021/10/15 01:16:36;;;;;;;23.70;16.33;;;3.60;99.90;;;;;;6160791;23;20245;-94
2021/10/15 01:19:03;;;;;;;28.13;15.90;;;3.50;99.90;;;;;;6161525;23;20171;-86
2021/10/15 01:21:29;;;;;;;28.67;17.35;;;3.60;99.90;;;;;;6161047;23;20448;-93
2021/10/15 01:23:56;;;;;;;24.00;15.50;;;3.50;99.90;;;;;;6161903;23;20218;-86
2021/10/15 01:26:22;;;;;;;24.73;14.95;;;3.50;99.90;;;;;;6160411;23;20206;-86
2021/10/15 01:28:51;;;;;;;25.35;15.85;;;3.40;99.90;;;;;;6161343;23;20539;-86
2021/10/15 01:31:17;;;;;;;31.13;15.35;;;3.40;99.90;;;;;;6176372;23;20206;-86
2021/10/15 01:33:43;;;;;;;32.08;16.83;;;3.50;99.90;;;;;;6161264;23;20158;-94
2021/10/15 01:36:10;;;;;;;28.70;16.40;;;3.50;99.90;;;;;;6162771;23;20563;-86
2021/10/15 01:38:35;;;;;;;23.83;14.90;;;3.40;99.90;;;;;;6161077;23;20695;-93
2021/10/15 01:41:01;;;;;;;23.90;14.70;;;3.40;99.90;;;;;;6160839;23;20193;-94
2021/10/15 01:43:29;;;;;;;24.77;14.90;;;3.30;99.90;;;;;;6160453;23;20406;-85
2021/10/15 01:45:56;;;;;;;25.15;15.45;;;3.30;99.90;;;;;;6187384;23;20767;-86
2021/10/15 01:48:23;;;;;;;23.17;14.30;;;3.30;99.90;;;;;;6160839;23;20162;-86
2021/10/15 01:50:50;;;;;;;21.77;15.27;;;3.30;99.90;;;;;;6162433;23;20217;-94
2021/10/15 01:53:16;;;;;;;24.38;15.25;;;3.20;99.90;;;;;;6161552;23;20155;-93
2021/10/15 01:55:44;;;;;;;24.20;15.65;;;3.30;99.90;;;;;;6161319;23;20186;-86
2021/10/15 01:58:11;;;;;;;24.58;15.73;;;3.30;99.90;;;;;;6162385;23;20609;-93
2021/10/15 02:00:37;;;;;;;27.70;15.50;;;3.30;99.90;;;;;;6161222;23;20191;-94
2021/10/15 02:03:04;;;;;;;24.92;15.43;;;3.30;99.90;;;;;;6167395;23;20170;-86
2021/10/15 02:05:30;;;;;;;25.52;16.08;;;3.30;99.90;;;;;;6201065;23;20616;-93
2021/10/15 02:08:00;;;;;;;27.55;15.30;;;3.30;99.90;;;;;;6160323;23;20163;-86
2021/10/15 02:10:26;;;;;;;28.98;15.45;;;3.30;99.90;;;;;;6160275;23;20174;-94
2021/10/15 02:12:57;;;;;;;28.13;15.70;;;3.30;99.90;;;;;;6160791;23;20161;-87
2021/10/15 02:15:23;;;;;;;30.60;16.63;;;3.40;99.90;;;;;;6162963;23;20739;-86
2021/10/15 02:17:49;;;;;;;27.13;16.70;;;3.30;99.90;;;;;;6164348;23;20198;-93
2021/10/15 02:20:21;;;;;;;22.77;14.98;;;3.40;99.90;;;;;;6162121;23;20183;-86
2021/10/15 02:22:49;;;;;;;25.40;14.90;;;3.30;99.90;;;;;;6162853;23;20150;-86
2021/10/15 02:25:17;;;;;;;27.75;17.67;;;3.30;99.90;;;;;;6162539;23;20189;-86
2021/10/15 02:27:44;;;;;;;21.50;13.60;;;3.40;99.90;;;;;;6162668;23;20162;-94
2021/10/15 02:30:14;;;;;;;24.23;14.63;;;3.40;99.90;;;;;;6188776;23;20187;-91
2021/10/15 02:32:41;;;;;;;23.63;15.30;;;3.40;99.90;;;;;;6162291;23;20241;-93
2021/10/15 02:35:09;;;;;;;22.60;15.23;;;3.40;99.90;;;;;;6162316;23;20179;-86
2021/10/15 02:37:36;;;;;;;26.92;15.77;;;3.40;99.90;;;;;;6161843;23;20286;-85
2021/10/15 02:40:02;;;;;;;22.30;13.35;;;3.40;99.90;;;;;;6191553;23;20170;-94
2021/10/15 02:42:28;;;;;;;22.67;13.85;;;3.40;99.90;;;;;;6179724;23;20194;-93
2021/10/15 02:44:53;;;;;;;22.63;14.90;;;3.30;99.90;;;;;;6162460;23;20503;-94
2021/10/15 02:47:20;;;;;;;25.70;14.23;;;3.30;99.90;;;;;;6163182;23;20361;-92
2021/10/15 02:49:49;;;;;;;23.35;14.30;;;3.30;99.90;;;;;;6163273;23;20676;-86
2021/10/15 02:52:16;;;;;;;25.65;16.33;;;3.30;99.90;;;;;;6188168;23;20197;-86
2021/10/15 02:54:42;;;;;;;23.25;14.73;;;3.30;99.90;;;;;;6162134;23;20185;-86
2021/10/15 02:57:08;;;;;;;24.83;14.87;;;3.30;99.90;;;;;;6161495;23;20191;-94
2021/10/15 02:59:33;;;;;;;25.20;12.97;;;3.30;99.90;;;;;;6162194;23;20403;-94
2021/10/15 03:02:00;;;;;;;25.10;14.57;;;3.20;99.90;;;;;;6191322;23;20159;-86
2021/10/15 03:04:26;;;;;;;29.20;14.82;;;3.20;99.90;;;;;;6163571;23;20179;-86
2021/10/15 03:06:52;;;;;;;23.85;15.13;;;3.20;99.90;;;;;;6167096;23;20166;-86
2021/10/15 03:09:18;;;;;;;21.40;12.73;;;3.20;99.90;;;;;;6169709;23;20197;-94
2021/10/15 03:11:44;;;;;;;21.40;13.03;;;3.20;99.90;;;;;;6188338;23;20422;-94
2021/10/15 03:14:10;;;;;;;20.17;12.73;;;3.20;99.90;;;;;;6161915;23;20202;-95
2021/10/15 03:16:36;;;;;;;25.05;12.80;;;3.20;99.90;;;;;;6164849;23;20906;-94
2021/10/15 03:19:03;;;;;;;25.67;14.10;;;3.20;99.90;;;;;;6189152;23;20162;-86
2021/10/15 03:21:28;;;;;;;21.15;13.80;;;3.20;99.90;;;;;;6161851;23;20162;-94
2021/10/15 03:23:54;;;;;;;17.30;11.90;;;3.20;99.90;;;;;;6162266;23;20162;-94
2021/10/15 03:26:22;;;;;;;19.87;12.33;;;3.10;99.90;;;;;;6194492;23;20363;-87
2021/10/15 03:28:48;;;;;;;23.60;13.18;;;3.10;99.90;;;;;;6166097;23;20185;-95
2021/10/15 03:31:15;;;;;;;20.47;14.07;;;3.10;99.90;;;;;;6162616;23;20604;-95
2021/10/15 03:33:41;;;;;;;21.52;13.10;;;3.10;99.90;;;;;;6164184;23;20237;-86
2021/10/15 03:36:07;;;;;;;22.17;12.83;;;3.10;99.90;;;;;;6188499;23;20221;-95
2021/10/15 03:38:34;;;;;;;20.37;12.70;;;3.10;99.90;;;;;;6161957;23;20362;-86
2021/10/15 03:41:00;;;;;;;22.08;13.00;;;3.10;99.90;;;;;;6165789;23;20443;-93
2021/10/15 03:43:26;;;;;;;23.77;13.47;;;3.20;99.90;;;;;;6162173;23;20182;-94
2021/10/15 03:45:53;;;;;;;41.10;23.57;;;3.20;99.90;;;;;;6164094;23;20182;-87
2021/10/15 03:48:19;;;;;;;20.00;12.57;;;3.30;99.90;;;;;;6164347;23;20585;-94
2021/10/15 03:50:47;;;;;;;22.67;11.65;;;3.30;99.90;;;;;;6161964;23;20525;-87
2021/10/15 03:53:13;;;;;;;18.83;11.70;;;3.30;99.90;;;;;;6167219;23;20156;-95
2021/10/15 03:55:39;;;;;;;20.53;12.63;;;3.30;99.90;;;;;;6163980;23;20217;-86
2021/10/15 03:58:05;;;;;;;19.25;11.95;;;3.30;99.90;;;;;;6161130;23;20147;-87
2021/10/15 04:00:31;;;;;;;18.50;12.82;;;3.30;99.90;;;;;;6161823;23;20190;-86
2021/10/15 04:02:57;;;;;;;16.80;10.95;;;3.30;99.90;;;;;;6162471;23;20541;-94
2021/10/15 04:05:24;;;;;;;18.27;12.07;;;3.30;99.90;;;;;;6187424;23;20174;-86
2021/10/15 04:07:51;;;;;;;22.08;12.98;;;3.30;99.90;;;;;;6161257;23;20182;-94
2021/10/15 04:10:19;;;;;;;22.17;12.13;;;3.30;99.90;;;;;;6187801;23;20182;-87
2021/10/15 04:12:45;;;;;;;19.63;12.07;;;3.30;99.90;;;;;;6187584;23;20151;-94
2021/10/15 04:15:11;;;;;;;21.13;12.18;;;3.30;99.90;;;;;;6158368;23;20582;-95
2021/10/15 04:17:37;;;;;;;25.67;12.53;;;3.30;99.90;;;;;;6158447;23;20262;-86
2021/10/15 04:20:05;;;;;;;23.48;13.40;;;3.30;99.90;;;;;;6169280;23;20399;-92
2021/10/15 04:22:31;;;;;;;21.83;13.80;;;3.30;99.90;;;;;;6159554;23;20597;-96
2021/10/15 04:24:58;;;;;;;20.17;13.20;;;3.40;99.90;;;;;;6156823;23;20187;-87
2021/10/15 04:27:24;;;;;;;20.25;12.40;;;3.40;99.90;;;;;;6156747;23;20190;-87
2021/10/15 04:29:50;;;;;;;23.08;14.50;;;3.40;99.90;;;;;;6161795;23;20183;-87
2021/10/15 04:32:16;;;;;;;25.83;13.83;;;3.40;99.90;;;;;;6160549;23;20155;-94
2021/10/15 04:34:42;;;;;;;20.50;12.50;;;3.40;99.90;;;;;;6161805;23;20409;-87
2021/10/15 04:37:08;;;;;;;21.38;13.10;;;3.40;99.90;;;;;;6158245;23;20520;-94
2021/10/15 04:39:34;;;;;;;27.30;12.50;;;3.40;99.90;;;;;;6157485;23;20189;-87
2021/10/15 04:42:00;;;;;;;24.15;14.65;;;3.40;99.90;;;;;;6162305;23;20396;-94
2021/10/15 04:44:26;;;;;;;21.30;11.87;;;3.50;99.90;;;;;;6159492;23;20187;-96
2021/10/15 04:46:54;;;;;;;23.60;14.88;;;3.60;99.90;;;;;;6157438;23;20155;-87
2021/10/15 04:49:21;;;;;;;22.50;12.63;;;3.80;99.90;;;;;;6156663;23;20191;-87
2021/10/15 04:51:48;;;;;;;23.88;13.40;;;3.90;99.90;;;;;;6165584;23;20156;-90
2021/10/15 04:54:15;;;;;;;22.90;13.57;;;4.00;99.90;;;;;;6156281;23;20175;-87
2021/10/15 04:56:41;;;;;;;26.25;14.10;;;4.10;99.90;;;;;;6162499;23;20524;-87
2021/10/15 04:59:09;;;;;;;22.92;13.75;;;4.20;99.90;;;;;;6155662;23;20163;-87
2021/10/15 05:01:35;;;;;;;25.15;14.80;;;4.30;99.90;;;;;;6155988;23;20609;-96
2021/10/15 05:04:01;;;;;;;25.07;15.37;;;4.20;99.90;;;;;;6154949;23;20163;-87
2021/10/15 05:06:26;;;;;;;30.80;16.87;;;4.10;99.90;;;;;;6155847;23;20676;-90
2021/10/15 05:11:29;;;;;;;24.67;15.05;;;3.90;99.90;;;;;;6170117;23;20177;-95
2021/10/15 05:14:01;;;;;;;28.58;16.38;;;3.70;99.90;;;;;;6155743;23;20649;-86
2021/10/15 05:16:28;;;;;;;29.23;16.38;;;3.70;99.90;;;;;;6163099;23;20194;-95
2021/10/15 05:18:54;;;;;;;21.38;15.38;;;3.60;99.90;;;;;;6158768;23;20491;-95
2021/10/15 05:21:21;;;;;;;24.77;16.30;;;3.50;99.90;;;;;;6167793;23;20179;-87
2021/10/15 05:23:47;;;;;;;27.08;16.70;;;3.40;99.90;;;;;;6157750;23;20340;-95
2021/10/15 05:26:13;;;;;;;31.05;17.95;;;3.30;99.90;;;;;;6156935;23;20194;-95
2021/10/15 05:28:39;;;;;;;31.23;16.50;;;3.30;99.90;;;;;;6156010;23;20163;-86
2021/10/15 05:31:05;;;;;;;25.33;15.23;;;3.20;99.90;;;;;;6155608;23;20191;-90
2021/10/15 05:33:31;;;;;;;27.50;16.10;;;3.20;99.90;;;;;;6155384;23;20155;-95
2021/10/15 05:35:57;;;;;;;42.40;19.97;;;3.20;99.90;;;;;;6156082;23;20187;-86
2021/10/15 05:38:25;;;;;;;33.78;18.75;;;3.20;99.90;;;;;;6155730;23;20163;-86
2021/10/15 05:40:50;;;;;;;28.23;16.33;;;3.10;99.90;;;;;;6157981;23;20189;-87
2021/10/15 05:43:19;;;;;;;28.55;18.02;;;3.10;99.90;;;;;;6155853;23;20179;-87
2021/10/15 05:45:47;;;;;;;25.35;16.88;;;3.10;99.90;;;;;;6156692;23;20573;-92
2021/10/15 05:48:13;;;;;;;27.48;16.02;;;3.20;99.90;;;;;;6156695;23;20159;-95
2021/10/15 05:50:41;;;;;;;28.83;19.13;;;3.20;99.90;;;;;;6156592;23;20197;-86
2021/10/15 05:53:12;;;;;;;27.05;18.27;;;3.10;99.90;;;;;;6153559;23;20234;-86
2021/10/15 05:56:07;;;;;;;27.10;19.38;;;3.20;99.90;;;;;;6153182;23;20247;-86
2021/10/15 05:58:53;;;;;;;37.75;23.15;;;3.20;99.90;;;;;;6154742;23;20266;-86
2021/10/15 06:01:26;;;;;;;33.92;20.67;;;3.20;99.90;;;;;;6153389;23;20186;-86
2021/10/15 06:14:27;;;;;;;34.70;24.45;;;3.50;99.90;;;;;;6176039;23;20268;-95
2021/10/15 06:16:59;;;;;;;37.67;24.83;;;3.50;99.90;;;;;;6166561;23;20190;-86
2021/10/15 06:19:27;;;;;;;39.30;23.70;;;3.60;99.90;;;;;;6161098;23;20234;-93
2021/10/15 06:21:53;;;;;;;36.38;24.92;;;3.70;99.90;;;;;;6160611;23;20353;-96
2021/10/15 06:24:19;;;;;;;35.27;25.93;;;3.70;99.90;;;;;;6160151;23;20186;-96
2021/10/15 06:26:45;;;;;;;55.65;45.28;;;3.80;99.90;;;;;;6158883;23;20155;-93
2021/10/15 06:29:14;;;;;;;42.28;31.88;;;3.80;99.90;;;;;;6186478;23;20487;-87
2021/10/15 06:31:40;;;;;;;33.95;24.45;;;3.90;99.90;;;;;;6158017;23;20161;-86
2021/10/15 06:34:06;;;;;;;47.80;31.73;;;4.00;99.90;;;;;;6159595;23;20162;-96
2021/10/15 06:36:33;;;;;;;35.47;26.40;;;4.00;99.90;;;;;;6163747;23;20758;-94
2021/10/15 06:38:58;;;;;;;48.80;35.20;;;4.10;99.90;;;;;;6164327;23;20217;-95
2021/10/15 06:41:25;;;;;;;34.20;24.00;;;4.20;99.90;;;;;;6160249;23;20150;-87
2021/10/15 06:43:51;;;;;;;28.13;18.58;;;4.20;99.90;;;;;;6163189;23;20636;-86
2021/10/15 06:46:17;;;;;;;29.38;19.25;;;4.30;99.90;;;;;;6179553;23;20184;-94
2021/10/15 06:48:42;;;;;;;27.00;17.70;;;4.40;99.90;;;;;;6177396;23;20158;-94
2021/10/15 06:51:09;;;;;;;28.73;18.67;;;4.50;99.90;;;;;;6183301;23;20416;-96
2021/10/15 06:53:34;;;;;;;27.73;19.15;;;4.60;99.90;;;;;;6164946;23;20379;-95
2021/10/15 06:56:01;;;;;;;27.27;18.97;;;4.70;99.90;;;;;;6160590;23;20576;-87
2021/10/15 06:58:28;;;;;;;32.85;20.27;;;4.80;99.90;;;;;;6159170;23;20393;-86
2021/10/15 07:00:54;;;;;;;27.27;19.25;;;5.00;99.90;;;;;;6161968;23;20183;-87
2021/10/15 07:03:22;;;;;;;38.72;19.73;;;5.10;99.90;;;;;;6162005;23;20238;-86
2021/10/15 07:05:48;;;;;;;30.02;20.70;;;5.30;99.90;;;;;;6190643;23;20737;-87
2021/10/15 07:08:14;;;;;;;36.17;20.98;;;5.50;99.90;;;;;;6162048;23;20205;-94
2021/10/15 07:10:41;;;;;;;32.42;19.95;;;5.60;99.90;;;;;;6160685;23;20526;-95
2021/10/15 07:13:06;;;;;;;34.15;21.10;;;5.80;99.90;;;;;;6184928;23;20155;-95
2021/10/15 07:15:38;;;;;;;35.97;21.20;;;6.00;99.90;;;;;;6185772;23;20186;-87
2021/10/15 07:18:03;;;;;;;30.10;20.05;;;6.20;99.90;;;;;;6160400;23;20190;-96
2021/10/15 07:20:30;;;;;;;33.40;21.10;;;6.40;99.90;;;;;;6174876;23;20251;-87
2021/10/15 07:22:56;;;;;;;33.13;21.90;;;6.60;99.90;;;;;;6160627;23;20185;-95
2021/10/15 07:25:23;;;;;;;32.72;21.13;;;6.80;99.90;;;;;;6188352;23;20193;-96
2021/10/15 07:27:51;;;;;;;35.42;21.13;;;7.00;99.90;;;;;;6152552;23;20170;-87
2021/10/15 07:30:17;;;;;;;29.58;20.52;;;7.20;99.90;;;;;;6160982;23;20213;-87
2021/10/15 07:32:43;;;;;;;33.42;21.50;;;7.50;99.90;;;;;;6186511;23;20615;-95
2021/10/15 07:35:10;;;;;;;32.55;20.75;;;7.70;99.90;;;;;;6157027;23;20246;-87
2021/10/15 07:37:36;;;;;;;30.48;20.00;;;8.00;99.90;;;;;;6153548;23;20190;-94
2021/10/15 07:40:04;;;;;;;28.20;18.70;;;8.30;99.90;;;;;;6152448;23;20197;-87
2021/10/15 07:42:30;;;;;;;30.50;18.80;;;8.60;99.90;;;;;;6156542;23;20165;-96
2021/10/15 07:44:58;;;;;;;30.25;17.90;;;9.10;99.90;;;;;;6158579;23;20186;-88
2021/10/15 07:47:24;;;;;;;25.23;17.55;;;9.70;99.90;;;;;;6157347;23;20162;-88
2021/10/15 07:49:50;;;;;;;27.57;17.60;;;10.30;99.90;;;;;;6157448;23;20187;-88
2021/10/15 07:52:16;;;;;;;22.88;14.38;;;11.10;99.90;;;;;;6157138;23;20639;-96
2021/10/15 07:54:42;;;;;;;19.23;15.27;;;11.90;99.90;;;;;;6170957;23;20174;-95
2021/10/15 07:57:12;;;;;;;21.57;14.17;;;12.90;99.90;;;;;;6160451;23;20187;-96
2021/10/15 07:59:37;;;;;;;19.52;14.77;;;14.00;99.90;;;;;;6156385;23;20412;-95
2021/10/15 08:02:03;;;;;;;19.80;14.83;;;14.90;99.90;;;;;;6156784;23;20181;-96
2021/10/15 08:04:32;;;;;;;22.20;15.57;;;15.80;99.90;;;;;;6158215;23;20632;-88
2021/10/15 08:06:58;;;;;;;20.80;14.10;;;16.60;99.90;;;;;;6129997;23;20246;-95
2021/10/15 08:09:24;;;;;;;20.60;15.70;;;17.40;99.90;;;;;;6170081;23;20414;-87
2021/10/15 08:11:50;;;;;;;19.43;14.63;;;18.10;99.90;;;;;;6156548;23;20396;-96
2021/10/15 08:14:18;;;;;;;18.40;13.80;;;18.80;99.90;;;;;;6181663;23;20419;-87
2021/10/15 08:16:44;;;;;;;21.13;15.03;;;19.30;99.90;;;;;;6156668;23;20194;-89
2021/10/15 08:19:11;;;;;;;17.53;13.50;;;19.90;99.90;;;;;;6157759;23;20767;-88
2021/10/15 08:21:37;;;;;;;16.83;13.40;;;20.30;99.90;;;;;;6181097;23;20368;-88
2021/10/15 08:24:03;;;;;;;21.57;14.23;;;20.60;99.90;;;;;;6160317;23;20450;-95
2021/10/15 08:26:31;;;;;;;16.77;12.80;;;21.00;99.90;;;;;;6170156;23;20673;-88
2021/10/15 08:29:00;;;;;;;17.13;12.77;;;21.30;99.90;;;;;;6154564;23;20404;-96
2021/10/15 08:31:29;;;;;;;18.07;13.80;;;21.30;99.90;;;;;;6153682;23;20900;-89
2021/10/15 08:33:56;;;;;;;19.40;13.50;;;21.70;99.90;;;;;;6159366;23;20452;-88
2021/10/15 08:36:23;;;;;;;15.87;12.20;;;22.30;99.10;;;;;;6158336;23;20448;-94
2021/10/15 08:38:52;;;;;;;17.23;13.73;;;22.50;97.80;;;;;;6159151;23;20925;-93
2021/10/15 08:41:25;;;;;;;18.70;13.80;;;22.40;97.20;;;;;;6158717;23;20405;-93
2021/10/15 08:43:56;;;;;;;17.40;12.90;;;21.90;96.80;;;;;;6160319;23;20866;-94
2021/10/15 08:46:22;;;;;;;18.80;13.40;;;21.30;97.00;;;;;;6190759;23;20394;-88
2021/10/15 08:48:48;;;;;;;16.70;12.87;;;20.50;97.70;;;;;;6159534;23;20485;-92
2021/10/15 08:51:15;;;;;;;18.70;13.63;;;19.90;98.10;;;;;;6183010;23;20404;-87
2021/10/15 08:54:00;;;;;;;16.43;12.50;;;19.20;98.80;;;;;;6154724;23;20376;-87
2021/10/15 08:56:31;;;;;;;15.77;12.07;;;18.60;99.60;;;;;;6163891;23;20460;-88
2021/10/15 08:58:59;;;;;;;17.63;13.27;;;18.10;99.90;;;;;;6184387;23;21012;-87
2021/10/15 09:01:30;;;;;;;15.50;12.00;;;17.70;99.90;;;;;;6181488;23;20415;-88
2021/10/15 09:04:05;;;;;;;15.23;12.43;;;17.50;99.90;;;;;;6154619;23;20381;-88
2021/10/15 09:06:40;;;;;;;16.40;12.03;;;17.40;99.90;;;;;;6179130;23;20461;-88
2021/10/15 09:09:11;;;;;;;15.50;12.27;;;17.20;99.90;;;;;;6155794;23;20944;-93
2021/10/15 09:11:40;;;;;;;17.60;12.63;;;17.00;99.90;;;;;;6140309;23;20681;-93
2021/10/15 09:14:24;;;;;;;18.80;12.50;;;16.80;99.90;;;;;;5126774;27;20611;-70
2021/10/15 09:17:07;;;;;;;15.20;11.40;;;16.50;99.90;;;;;;5106467;28;20415;-73
2021/10/15 09:19:40;;;;;;;17.50;13.07;;;16.30;99.90;;;;;;5118508;28;20493;-73
2021/10/15 09:22:26;;;;;;;13.57;11.33;;;16.00;99.90;;;;;;5119339;28;20434;-73
2021/10/15 09:25:02;;;;;;;14.23;10.70;;;15.80;99.90;;;;;;5117062;28;20789;-73
2021/10/15 09:27:50;;;;;;;17.23;12.50;;;15.60;99.90;;;;;;5121238;28;20430;-73
2021/10/15 09:30:18;;;;;;;11.10;9.67;;;15.40;99.90;;;;;;5119894;28;20865;-72
2021/10/15 09:32:47;;;;;;;11.90;8.50;;;15.20;99.90;;;;;;5116082;28;20543;-74
2021/10/15 09:35:18;;;;;;;12.53;9.30;;;15.10;99.90;;;;;;5113280;28;20799;-72
2021/10/15 09:37:55;;;;;;;13.60;10.13;;;15.00;99.90;;;;;;5116627;27;20431;-73
2021/10/15 09:40:23;;;;;;;11.97;8.87;;;15.10;99.90;;;;;;5120121;28;20943;-73
2021/10/15 09:42:51;;;;;;;15.43;11.00;;;15.10;99.90;;;;;;5119178;28;20987;-74
2021/10/15 09:45:27;;;;;;;15.40;9.93;;;15.10;99.90;;;;;;5113748;28;20539;-72
2021/10/15 09:48:01;;;;;;;15.20;10.30;;;15.10;99.90;;;;;;5116401;28;21111;-73
2021/10/15 09:50:34;;;;;;;13.77;10.20;;;15.00;99.90;;;;;;5125417;28;21051;-72
2021/10/15 09:53:04;;;;;;;12.43;9.07;;;14.90;99.90;;;;;;5108709;28;20471;-73
2021/10/15 09:55:43;;;;;;;11.00;9.40;;;14.80;99.90;;;;;;5118061;28;20443;-73
2021/10/15 09:58:10;;;;;;;14.60;10.97;;;14.80;99.90;;;;;;5119085;27;20974;-71
2021/10/15 10:00:40;;;;;;;14.43;9.90;;;14.80;99.90;;;;;;5113455;27;20474;-72
2021/10/15 10:03:11;;;;;;;15.13;10.70;;;14.70;99.90;;;;;;5123653;28;20495;-72
2021/10/15 10:05:39;;;;;;;14.83;9.80;;;14.70;99.90;;;;;;5123554;28;21031;-72
2021/10/15 10:08:07;;;;;;;10.97;9.13;;;14.70;99.90;;;;;;5116388;27;20795;-73
2021/10/15 10:10:39;;;;;;;13.93;10.27;;;14.70;99.90;;;;;;5122424;28;20459;-73
2021/10/15 10:13:17;;;;;;;11.07;9.60;;;14.70;99.90;;;;;;5119755;28;20491;-72
2021/10/15 10:15:46;;;;;;;16.10;9.90;;;14.60;99.90;;;;;;5119541;27;20786;-71
2021/10/15 10:18:29;;;;;;;13.00;8.67;;;14.60;99.90;;;;;;5124721;27;20923;-74
2021/10/15 10:21:03;;;;;;;13.10;10.10;;;14.60;99.90;;;;;;5113495;28;20451;-73
2021/10/15 10:23:35;;;;;;;13.40;9.47;;;14.60;99.90;;;;;;5112808;28;20450;-73
2021/10/15 10:26:06;;;;;;;14.97;9.70;;;14.60;99.90;;;;;;5106116;28;20501;-72
2021/10/15 10:28:32;;;;;;;14.33;10.30;;;14.60;99.90;;;;;;5112448;28;20468;-72
2021/10/15 10:31:03;;;;;;;11.37;8.80;;;14.60;99.90;;;;;;5106231;28;20448;-73
2021/10/15 10:33:49;;;;;;;13.70;9.60;;;14.70;99.90;;;;;;5108381;28;20987;-74
2021/10/15 10:36:17;;;;;;;11.63;9.00;;;14.70;99.90;;;;;;5098737;28;20494;-72
2021/10/15 10:38:48;;;;;;;13.50;9.27;;;14.70;99.90;;;;;;5098967;28;20531;-72
2021/10/15 10:41:27;;;;;;;18.70;9.23;;;14.70;99.90;;;;;;5102263;28;20885;-72
2021/10/15 10:43:54;;;;;;;12.37;8.60;;;14.80;99.90;;;;;;5099940;28;20422;-71
2021/10/15 10:46:31;;;;;;;14.23;9.27;;;14.80;99.90;;;;;;5099316;28;20942;-72
2021/10/15 10:48:56;;;;;;;16.20;9.53;;;14.80;99.90;;;;;;5098678;28;20184;-71
2021/10/15 10:51:30;;;;;;;12.23;8.97;;;14.80;99.90;;;;;;5105240;28;20470;-74
2021/10/15 10:54:01;;;;;;;13.23;9.37;;;14.90;99.90;;;;;;5100571;28;20213;-75
2021/10/15 10:56:50;;;;;;;17.60;10.23;;;14.90;99.90;;;;;;5104767;28;20766;-71
2021/10/15 10:59:17;;;;;;;11.27;9.20;;;14.90;99.90;;;;;;5108340;28;20436;-70
2021/10/15 11:01:51;;;;;;;13.40;8.43;;;14.90;99.90;;;;;;5102178;28;20783;-73
2021/10/15 11:04:38;;;;;;;11.37;8.10;;;14.90;99.90;;;;;;5098816;28;20546;-73
2021/10/15 11:07:20;;;;;;;11.20;8.70;;;14.90;99.90;;;;;;5105343;28;20434;-74
2021/10/15 11:10:13;;;;;;;9.43;7.73;;;15.00;99.90;;;;;;5102964;28;20432;-74
2021/10/15 11:12:44;;;;;;;14.70;8.70;;;15.00;99.90;;;;;;5088721;28;21032;-72
2021/10/15 11:15:14;;;;;;;12.33;8.93;;;14.90;99.90;;;;;;5099366;28;20420;-73
2021/10/15 11:17:49;;;;;;;13.40;8.90;;;14.90;99.90;;;;;;5101701;28;20429;-73
2021/10/15 11:20:38;;;;;;;12.83;8.97;;;14.90;99.90;;;;;;5096849;28;20458;-72
2021/10/15 11:23:10;;;;;;;9.03;7.80;;;15.00;99.90;;;;;;5101260;28;21024;-72
2021/10/15 11:25:39;;;;;;;11.17;7.87;;;15.00;99.90;;;;;;5100915;28;20976;-74
2021/10/15 11:28:14;;;;;;;10.50;7.50;;;15.00;99.90;;;;;;5089431;28;20432;-73
2021/10/15 11:30:44;;;;;;;10.63;7.80;;;15.00;99.90;;;;;;5118185;27;20496;-73
2021/10/15 11:33:16;;;;;;;11.20;8.93;;;15.00;99.90;;;;;;5101304;28;20488;-70
2021/10/15 11:35:51;;;;;;;12.60;8.53;;;15.00;99.90;;;;;;5107937;28;20996;-73
2021/10/15 11:38:25;;;;;;;9.40;7.47;;;15.00;99.90;;;;;;5099888;28;20475;-72
2021/10/15 11:41:03;;;;;;;9.77;7.50;;;15.10;99.90;;;;;;5100610;28;20860;-72
2021/10/15 11:43:34;;;;;;;10.73;8.83;;;15.10;99.90;;;;;;5104599;28;20444;-71
2021/10/15 11:46:03;;;;;;;9.53;8.00;;;15.10;99.90;;;;;;5089941;28;20517;-73
2021/10/15 11:48:51;;;;;;;10.30;8.10;;;15.20;99.90;;;;;;5090608;28;20797;-71
2021/10/15 11:51:23;;;;;;;9.97;7.00;;;15.20;99.90;;;;;;5100393;28;20828;-72
2021/10/15 11:53:52;;;;;;;11.20;7.63;;;15.30;99.90;;;;;;5090549;28;20476;-72
2021/10/15 11:56:24;;;;;;;8.77;6.60;;;15.30;99.90;;;;;;5095929;28;20832;-72
2021/10/15 11:58:58;;;;;;;8.83;6.97;;;15.30;99.90;;;;;;5095269;28;20499;-71
2021/10/15 12:01:31;;;;;;;9.37;7.13;;;15.30;99.90;;;;;;5097619;28;20482;-72
2021/10/15 12:04:02;;;;;;;8.83;7.03;;;15.40;99.90;;;;;;5102495;28;20848;-73
2021/10/15 12:06:39;;;;;;;10.20;7.07;;;15.40;99.90;;;;;;5092049;28;20865;-72
2021/10/15 12:09:15;;;;;;;10.50;8.20;;;15.50;99.90;;;;;;5104684;27;20894;-72
2021/10/15 12:11:45;;;;;;;11.37;9.23;;;15.50;99.90;;;;;;5104105;28;20765;-72
2021/10/15 12:14:21;;;;;;;21.07;8.37;;;15.50;99.90;;;;;;5103618;28;20490;-72
2021/10/15 12:16:54;;;;;;;10.33;7.77;;;15.50;99.90;;;;;;5099896;28;20420;-72
2021/10/15 12:19:25;;;;;;;9.90;7.80;;;15.50;99.90;;;;;;5105499;28;20445;-73
2021/10/15 12:21:58;;;;;;;8.33;6.70;;;15.60;99.90;;;;;;5117222;27;20447;-73
2021/10/15 12:24:29;;;;;;;9.50;7.30;;;15.60;99.90;;;;;;5102459;28;20999;-73
2021/10/15 12:27:10;;;;;;;8.90;7.03;;;15.60;99.90;;;;;;5119819;27;20932;-74
2021/10/15 12:29:41;;;;;;;9.50;7.10;;;15.60;99.90;;;;;;5099743;28;20491;-72
2021/10/15 12:32:41;;;;;;;8.90;6.47;;;15.60;99.90;;;;;;5102741;28;20526;-72
2021/10/15 12:35:25;;;;;;;9.83;7.30;;;15.60;99.90;;;;;;5117311;27;20460;-72
2021/10/15 12:37:56;;;;;;;9.70;7.60;;;15.70;99.90;;;;;;5102410;27;20819;-74
2021/10/15 12:40:29;;;;;;;11.50;7.83;;;15.60;99.90;;;;;;5100136;28;20440;-72
2021/10/15 12:42:57;;;;;;;9.17;6.90;;;15.70;99.90;;;;;;5102251;28;20851;-71
2021/10/15 12:45:25;;;;;;;8.87;6.73;;;15.60;99.90;;;;;;5093355;28;20437;-72
2021/10/15 12:48:00;;;;;;;8.83;6.93;;;15.60;99.90;;;;;;5093820;28;20436;-72
2021/10/15 12:50:29;;;;;;;9.67;6.70;;;15.60;99.90;;;;;;5097404;28;20774;-72
2021/10/15 12:52:56;;;;;;;9.13;6.70;;;15.60;99.90;;;;;;5095865;28;20503;-71
2021/10/15 12:55:31;;;;;;;9.50;6.20;;;15.70;99.90;;;;;;5101484;28;20460;-73
2021/10/15 12:58:06;;;;;;;11.07;7.50;;;15.70;99.90;;;;;;5099428;28;20472;-73